sensor_id;sensor_type;location;lat;lon;timestamp;P1;durP1;ratioP1;P2;durP2;ratioP2
72573;SDS011;60603;52.548;13.420;2022-11-12T00:00:15;9.90;;;4.25;;
72573;SDS011;60603;52.548;13.420;2022-11-12T00:03:01;9.93;;;5.25;;
72573;SDS011;60603;52.548;13.420;2022-11-12T00:05:28;9.18;;;4.35;;
72573;SDS011;60603;52.548;13.420;2022-11-12T00:07:53;9.43;;;3.75;;
72573;SDS011;60603;52.548;13.420;2022-11-12T00:10:19;10.73;;;3.80;;
72573;SDS011;60603;52.548;13.420;2022-11-12T00:12:45;12.73;;;4.28;;
72573;SDS011;60603;52.548;13.420;2022-11-12T00:15:11;9.63;;;3.63;;
72573;SDS011;60603;52.548;13.420;2022-11-12T00:17:37;8.13;;;4.07;;
72573;SDS011;60603;52.548;13.420;2022-11-12T00:20:03;9.45;;;3.70;;
72573;SDS011;60603;52.548;13.420;2022-11-12T00:22:30;7.22;;;3.20;;
72573;SDS011;60603;52.548;13.420;2022-11-12T00:24:56;6.53;;;3.28;;
72573;SDS011;60603;52.548;13.420;2022-11-12T00:27:21;9.75;;;3.95;;
72573;SDS011;60603;52.548;13.420;2022-11-12T00:29:47;11.43;;;3.60;;
72573;SDS011;60603;52.548;13.420;2022-11-12T00:32:13;10.70;;;4.00;;
72573;SDS011;60603;52.548;13.420;2022-11-12T00:34:39;12.20;;;3.83;;
72573;SDS011;60603;52.548;13.420;2022-11-12T00:37:04;6.75;;;3.42;;
72573;SDS011;60603;52.548;13.420;2022-11-12T00:39:31;7.88;;;3.30;;
72573;SDS011;60603;52.548;13.420;2022-11-12T00:41:57;7.20;;;3.65;;
72573;SDS011;60603;52.548;13.420;2022-11-12T00:44:23;6.93;;;3.28;;
72573;SDS011;60603;52.548;13.420;2022-11-12T00:46:48;8.18;;;3.50;;
72573;SDS011;60603;52.548;13.420;2022-11-12T00:49:14;8.88;;;3.33;;
72573;SDS011;60603;52.548;13.420;2022-11-12T00:51:40;9.50;;;3.80;;
72573;SDS011;60603;52.548;13.420;2022-11-12T00:54:06;8.82;;;3.50;;
72573;SDS011;60603;52.548;13.420;2022-11-12T00:56:32;7.70;;;3.80;;
72573;SDS011;60603;52.548;13.420;2022-11-12T00:58:58;6.85;;;3.50;;
72573;SDS011;60603;52.548;13.420;2022-11-12T01:01:24;8.38;;;3.65;;
72573;SDS011;60603;52.548;13.420;2022-11-12T01:03:50;8.07;;;3.47;;
72573;SDS011;60603;52.548;13.420;2022-11-12T01:06:17;7.47;;;3.00;;
72573;SDS011;60603;52.548;13.420;2022-11-12T01:08:44;8.77;;;3.67;;
72573;SDS011;60603;52.548;13.420;2022-11-12T01:11:11;7.97;;;3.38;;
72573;SDS011;60603;52.548;13.420;2022-11-12T01:13:40;9.68;;;3.15;;
72573;SDS011;60603;52.548;13.420;2022-11-12T01:16:08;8.68;;;3.38;;
72573;SDS011;60603;52.548;13.420;2022-11-12T01:18:35;7.65;;;3.83;;
72573;SDS011;60603;52.548;13.420;2022-11-12T01:21:01;5.57;;;2.28;;
72573;SDS011;60603;52.548;13.420;2022-11-12T01:23:30;10.00;;;3.03;;
72573;SDS011;60603;52.548;13.420;2022-11-12T01:25:56;8.15;;;3.10;;
72573;SDS011;60603;52.548;13.420;2022-11-12T01:28:22;5.40;;;2.78;;
72573;SDS011;60603;52.548;13.420;2022-11-12T01:30:48;5.85;;;2.92;;
72573;SDS011;60603;52.548;13.420;2022-11-12T01:33:16;6.85;;;3.25;;
72573;SDS011;60603;52.548;13.420;2022-11-12T01:35:42;9.38;;;3.22;;
72573;SDS011;60603;52.548;13.420;2022-11-12T01:38:07;6.20;;;3.22;;
72573;SDS011;60603;52.548;13.420;2022-11-12T01:40:33;7.97;;;3.25;;
72573;SDS011;60603;52.548;13.420;2022-11-12T01:42:59;5.43;;;3.20;;
72573;SDS011;60603;52.548;13.420;2022-11-12T01:45:24;7.43;;;3.35;;
72573;SDS011;60603;52.548;13.420;2022-11-12T01:47:50;8.00;;;3.10;;
72573;SDS011;60603;52.548;13.420;2022-11-12T01:50:27;8.20;;;3.30;;
72573;SDS011;60603;52.548;13.420;2022-11-12T01:53:05;6.57;;;2.78;;
72573;SDS011;60603;52.548;13.420;2022-11-12T01:55:34;9.75;;;3.40;;
72573;SDS011;60603;52.548;13.420;2022-11-12T01:58:11;8.27;;;3.03;;
72573;SDS011;60603;52.548;13.420;2022-11-12T02:00:39;7.80;;;3.42;;
72573;SDS011;60603;52.548;13.420;2022-11-12T02:03:07;7.43;;;3.60;;
72573;SDS011;60603;52.548;13.420;2022-11-12T02:05:38;7.60;;;3.20;;
72573;SDS011;60603;52.548;13.420;2022-11-12T02:08:05;8.20;;;3.50;;
72573;SDS011;60603;52.548;13.420;2022-11-12T02:10:32;6.32;;;3.10;;
72573;SDS011;60603;52.548;13.420;2022-11-12T02:12:59;5.78;;;3.40;;
72573;SDS011;60603;52.548;13.420;2022-11-12T02:15:45;7.85;;;3.30;;
72573;SDS011;60603;52.548;13.420;2022-11-12T02:18:11;7.30;;;3.55;;
72573;SDS011;60603;52.548;13.420;2022-11-12T02:20:37;10.20;;;3.47;;
72573;SDS011;60603;52.548;13.420;2022-11-12T02:23:04;8.55;;;3.67;;
72573;SDS011;60603;52.548;13.420;2022-11-12T02:25:31;7.40;;;3.30;;
72573;SDS011;60603;52.548;13.420;2022-11-12T02:27:58;10.73;;;3.35;;
72573;SDS011;60603;52.548;13.420;2022-11-12T02:30:32;6.53;;;3.72;;
72573;SDS011;60603;52.548;13.420;2022-11-12T02:32:59;7.03;;;3.10;;
72573;SDS011;60603;52.548;13.420;2022-11-12T02:35:26;7.55;;;3.45;;
72573;SDS011;60603;52.548;13.420;2022-11-12T02:37:52;11.80;;;3.60;;
72573;SDS011;60603;52.548;13.420;2022-11-12T02:40:17;6.28;;;3.85;;
72573;SDS011;60603;52.548;13.420;2022-11-12T02:42:43;7.55;;;2.92;;
72573;SDS011;60603;52.548;13.420;2022-11-12T02:45:09;7.03;;;3.72;;
72573;SDS011;60603;52.548;13.420;2022-11-12T02:47:35;6.65;;;2.65;;
72573;SDS011;60603;52.548;13.420;2022-11-12T02:50:01;6.97;;;3.28;;
72573;SDS011;60603;52.548;13.420;2022-11-12T02:52:27;7.55;;;3.35;;
72573;SDS011;60603;52.548;13.420;2022-11-12T02:54:52;8.90;;;3.20;;
72573;SDS011;60603;52.548;13.420;2022-11-12T02:57:18;6.28;;;2.90;;
72573;SDS011;60603;52.548;13.420;2022-11-12T02:59:44;9.80;;;3.17;;
72573;SDS011;60603;52.548;13.420;2022-11-12T03:02:10;7.32;;;3.97;;
72573;SDS011;60603;52.548;13.420;2022-11-12T03:04:35;5.45;;;2.70;;
72573;SDS011;60603;52.548;13.420;2022-11-12T03:07:01;6.00;;;2.85;;
72573;SDS011;60603;52.548;13.420;2022-11-12T03:09:27;10.35;;;3.08;;
72573;SDS011;60603;52.548;13.420;2022-11-12T03:11:53;6.07;;;3.40;;
72573;SDS011;60603;52.548;13.420;2022-11-12T03:14:19;7.50;;;2.60;;
72573;SDS011;60603;52.548;13.420;2022-11-12T03:16:44;7.38;;;3.28;;
72573;SDS011;60603;52.548;13.420;2022-11-12T03:19:10;7.43;;;3.00;;
72573;SDS011;60603;52.548;13.420;2022-11-12T03:21:36;9.05;;;3.17;;
72573;SDS011;60603;52.548;13.420;2022-11-12T03:24:02;6.53;;;2.83;;
72573;SDS011;60603;52.548;13.420;2022-11-12T03:26:28;7.93;;;3.20;;
72573;SDS011;60603;52.548;13.420;2022-11-12T03:28:54;8.77;;;2.80;;
72573;SDS011;60603;52.548;13.420;2022-11-12T03:31:19;5.45;;;2.85;;
72573;SDS011;60603;52.548;13.420;2022-11-12T03:33:45;5.38;;;2.90;;
72573;SDS011;60603;52.548;13.420;2022-11-12T03:36:11;6.13;;;2.97;;
72573;SDS011;60603;52.548;13.420;2022-11-12T03:38:37;8.88;;;2.97;;
72573;SDS011;60603;52.548;13.420;2022-11-12T03:41:02;7.05;;;3.20;;
72573;SDS011;60603;52.548;13.420;2022-11-12T03:43:28;5.97;;;3.00;;
72573;SDS011;60603;52.548;13.420;2022-11-12T03:45:54;8.13;;;3.55;;
72573;SDS011;60603;52.548;13.420;2022-11-12T03:48:20;6.30;;;2.95;;
72573;SDS011;60603;52.548;13.420;2022-11-12T03:50:46;6.88;;;3.28;;
72573;SDS011;60603;52.548;13.420;2022-11-12T03:53:11;8.75;;;3.20;;
72573;SDS011;60603;52.548;13.420;2022-11-12T03:55:37;9.13;;;3.42;;
72573;SDS011;60603;52.548;13.420;2022-11-12T03:58:03;7.78;;;3.17;;
72573;SDS011;60603;52.548;13.420;2022-11-12T04:00:29;7.88;;;3.13;;
72573;SDS011;60603;52.548;13.420;2022-11-12T04:02:56;6.80;;;3.40;;
72573;SDS011;60603;52.548;13.420;2022-11-12T04:05:22;7.53;;;3.60;;
72573;SDS011;60603;52.548;13.420;2022-11-12T04:08:14;7.35;;;3.60;;
72573;SDS011;60603;52.548;13.420;2022-11-12T04:13:30;7.72;;;3.60;;
72573;SDS011;60603;52.548;13.420;2022-11-12T04:15:57;6.97;;;3.55;;
72573;SDS011;60603;52.548;13.420;2022-11-12T04:18:44;7.85;;;3.95;;
72573;SDS011;60603;52.548;13.420;2022-11-12T04:21:30;8.45;;;3.45;;
72573;SDS011;60603;52.548;13.420;2022-11-12T04:27:22;7.45;;;3.40;;
72573;SDS011;60603;52.548;13.420;2022-11-12T04:29:55;8.98;;;3.40;;
72573;SDS011;60603;52.548;13.420;2022-11-12T04:32:44;9.77;;;3.67;;
72573;SDS011;60603;52.548;13.420;2022-11-12T04:35:12;5.20;;;3.10;;
72573;SDS011;60603;52.548;13.420;2022-11-12T04:37:37;7.43;;;3.70;;
72573;SDS011;60603;52.548;13.420;2022-11-12T04:40:13;6.40;;;3.10;;
72573;SDS011;60603;52.548;13.420;2022-11-12T04:42:59;5.68;;;2.90;;
72573;SDS011;60603;52.548;13.420;2022-11-12T04:45:44;7.43;;;3.42;;
72573;SDS011;60603;52.548;13.420;2022-11-12T04:48:11;10.13;;;3.47;;
72573;SDS011;60603;52.548;13.420;2022-11-12T04:50:36;7.63;;;3.13;;
72573;SDS011;60603;52.548;13.420;2022-11-12T04:53:03;8.15;;;3.55;;
72573;SDS011;60603;52.548;13.420;2022-11-12T04:55:29;6.95;;;3.55;;
72573;SDS011;60603;52.548;13.420;2022-11-12T04:57:54;8.13;;;3.53;;
72573;SDS011;60603;52.548;13.420;2022-11-12T05:00:20;7.53;;;3.00;;
72573;SDS011;60603;52.548;13.420;2022-11-12T05:02:48;10.27;;;3.10;;
72573;SDS011;60603;52.548;13.420;2022-11-12T05:05:14;8.07;;;3.58;;
72573;SDS011;60603;52.548;13.420;2022-11-12T05:07:40;10.35;;;4.22;;
72573;SDS011;60603;52.548;13.420;2022-11-12T05:10:05;7.50;;;3.35;;
72573;SDS011;60603;52.548;13.420;2022-11-12T05:12:31;6.15;;;3.67;;
72573;SDS011;60603;52.548;13.420;2022-11-12T05:14:57;11.35;;;4.28;;
72573;SDS011;60603;52.548;13.420;2022-11-12T05:17:23;8.93;;;3.72;;
72573;SDS011;60603;52.548;13.420;2022-11-12T05:19:49;8.57;;;3.53;;
72573;SDS011;60603;52.548;13.420;2022-11-12T05:22:15;10.70;;;3.88;;
72573;SDS011;60603;52.548;13.420;2022-11-12T05:24:41;9.10;;;3.70;;
72573;SDS011;60603;52.548;13.420;2022-11-12T05:29:35;9.93;;;4.13;;
72573;SDS011;60603;52.548;13.420;2022-11-12T05:32:02;8.65;;;4.07;;
72573;SDS011;60603;52.548;13.420;2022-11-12T05:34:28;10.60;;;3.90;;
72573;SDS011;60603;52.548;13.420;2022-11-12T05:36:54;6.55;;;3.90;;
72573;SDS011;60603;52.548;13.420;2022-11-12T05:39:20;7.68;;;3.80;;
72573;SDS011;60603;52.548;13.420;2022-11-12T05:41:46;8.88;;;3.95;;
72573;SDS011;60603;52.548;13.420;2022-11-12T05:44:12;9.00;;;4.05;;
72573;SDS011;60603;52.548;13.420;2022-11-12T05:46:37;9.63;;;4.30;;
72573;SDS011;60603;52.548;13.420;2022-11-12T05:49:03;9.07;;;3.78;;
72573;SDS011;60603;52.548;13.420;2022-11-12T05:51:29;8.68;;;3.70;;
72573;SDS011;60603;52.548;13.420;2022-11-12T05:53:55;7.72;;;3.45;;
72573;SDS011;60603;52.548;13.420;2022-11-12T05:56:20;9.43;;;3.90;;
72573;SDS011;60603;52.548;13.420;2022-11-12T05:58:46;10.10;;;4.15;;
72573;SDS011;60603;52.548;13.420;2022-11-12T06:01:12;7.68;;;3.75;;
72573;SDS011;60603;52.548;13.420;2022-11-12T06:03:38;10.15;;;4.88;;
72573;SDS011;60603;52.548;13.420;2022-11-12T06:06:04;8.93;;;3.80;;
72573;SDS011;60603;52.548;13.420;2022-11-12T06:08:29;7.75;;;4.32;;
72573;SDS011;60603;52.548;13.420;2022-11-12T06:10:55;9.50;;;4.20;;
72573;SDS011;60603;52.548;13.420;2022-11-12T06:13:22;11.15;;;4.45;;
72573;SDS011;60603;52.548;13.420;2022-11-12T06:15:49;8.02;;;3.80;;
72573;SDS011;60603;52.548;13.420;2022-11-12T06:18:15;9.13;;;4.90;;
72573;SDS011;60603;52.548;13.420;2022-11-12T06:20:41;8.52;;;4.32;;
72573;SDS011;60603;52.548;13.420;2022-11-12T06:23:06;9.60;;;4.80;;
72573;SDS011;60603;52.548;13.420;2022-11-12T06:25:32;12.25;;;5.57;;
72573;SDS011;60603;52.548;13.420;2022-11-12T06:27:58;11.32;;;4.55;;
72573;SDS011;60603;52.548;13.420;2022-11-12T06:30:23;10.23;;;4.15;;
72573;SDS011;60603;52.548;13.420;2022-11-12T06:32:50;9.73;;;4.22;;
72573;SDS011;60603;52.548;13.420;2022-11-12T06:35:16;8.57;;;4.28;;
72573;SDS011;60603;52.548;13.420;2022-11-12T06:37:46;8.20;;;3.83;;
72573;SDS011;60603;52.548;13.420;2022-11-12T06:40:13;8.75;;;4.07;;
72573;SDS011;60603;52.548;13.420;2022-11-12T06:42:38;8.65;;;4.68;;
72573;SDS011;60603;52.548;13.420;2022-11-12T06:45:05;9.05;;;4.50;;
72573;SDS011;60603;52.548;13.420;2022-11-12T06:47:31;10.52;;;4.05;;
72573;SDS011;60603;52.548;13.420;2022-11-12T06:49:56;7.82;;;4.13;;
72573;SDS011;60603;52.548;13.420;2022-11-12T06:52:22;8.18;;;4.82;;
72573;SDS011;60603;52.548;13.420;2022-11-12T06:54:48;9.63;;;4.65;;
72573;SDS011;60603;52.548;13.420;2022-11-12T06:57:14;8.55;;;4.47;;
72573;SDS011;60603;52.548;13.420;2022-11-12T06:59:40;8.70;;;4.45;;
72573;SDS011;60603;52.548;13.420;2022-11-12T07:02:05;9.32;;;4.80;;
72573;SDS011;60603;52.548;13.420;2022-11-12T07:04:31;8.75;;;4.60;;
72573;SDS011;60603;52.548;13.420;2022-11-12T07:06:57;9.18;;;4.57;;
72573;SDS011;60603;52.548;13.420;2022-11-12T07:09:23;11.52;;;4.80;;
72573;SDS011;60603;52.548;13.420;2022-11-12T07:11:48;12.05;;;4.50;;
72573;SDS011;60603;52.548;13.420;2022-11-12T07:14:14;8.30;;;4.45;;
72573;SDS011;60603;52.548;13.420;2022-11-12T07:16:40;8.75;;;3.95;;
72573;SDS011;60603;52.548;13.420;2022-11-12T07:19:06;7.60;;;3.70;;
72573;SDS011;60603;52.548;13.420;2022-11-12T07:21:31;13.35;;;4.85;;
72573;SDS011;60603;52.548;13.420;2022-11-12T07:23:57;10.18;;;4.72;;
72573;SDS011;60603;52.548;13.420;2022-11-12T07:26:24;7.88;;;3.60;;
72573;SDS011;60603;52.548;13.420;2022-11-12T07:28:52;6.85;;;3.80;;
72573;SDS011;60603;52.548;13.420;2022-11-12T07:31:20;10.25;;;3.97;;
72573;SDS011;60603;52.548;13.420;2022-11-12T07:33:46;7.60;;;3.97;;
72573;SDS011;60603;52.548;13.420;2022-11-12T07:36:15;8.43;;;4.00;;
72573;SDS011;60603;52.548;13.420;2022-11-12T07:38:42;9.93;;;4.28;;
72573;SDS011;60603;52.548;13.420;2022-11-12T07:41:11;9.43;;;4.72;;
72573;SDS011;60603;52.548;13.420;2022-11-12T07:43:39;6.75;;;3.88;;
72573;SDS011;60603;52.548;13.420;2022-11-12T07:46:07;8.98;;;3.95;;
72573;SDS011;60603;52.548;13.420;2022-11-12T07:48:38;10.85;;;4.60;;
72573;SDS011;60603;52.548;13.420;2022-11-12T07:53:39;10.73;;;4.30;;
72573;SDS011;60603;52.548;13.420;2022-11-12T07:56:05;7.53;;;3.95;;
72573;SDS011;60603;52.548;13.420;2022-11-12T07:58:32;10.43;;;4.57;;
72573;SDS011;60603;52.548;13.420;2022-11-12T08:01:06;10.27;;;4.30;;
72573;SDS011;60603;52.548;13.420;2022-11-12T08:03:35;6.88;;;3.50;;
72573;SDS011;60603;52.548;13.420;2022-11-12T08:06:01;9.50;;;4.45;;
72573;SDS011;60603;52.548;13.420;2022-11-12T08:08:27;11.77;;;4.53;;
72573;SDS011;60603;52.548;13.420;2022-11-12T08:10:54;9.18;;;4.03;;
72573;SDS011;60603;52.548;13.420;2022-11-12T08:13:23;8.15;;;4.10;;
72573;SDS011;60603;52.548;13.420;2022-11-12T08:15:49;8.93;;;4.10;;
72573;SDS011;60603;52.548;13.420;2022-11-12T08:18:15;9.68;;;4.35;;
72573;SDS011;60603;52.548;13.420;2022-11-12T08:20:41;12.18;;;4.90;;
72573;SDS011;60603;52.548;13.420;2022-11-12T08:23:07;8.50;;;4.10;;
72573;SDS011;60603;52.548;13.420;2022-11-12T08:25:33;9.07;;;4.63;;
72573;SDS011;60603;52.548;13.420;2022-11-12T08:27:59;9.23;;;4.18;;
72573;SDS011;60603;52.548;13.420;2022-11-12T08:30:25;9.07;;;4.28;;
72573;SDS011;60603;52.548;13.420;2022-11-12T08:32:58;11.82;;;5.30;;
72573;SDS011;60603;52.548;13.420;2022-11-12T08:35:26;10.32;;;4.72;;
72573;SDS011;60603;52.548;13.420;2022-11-12T08:40:25;11.50;;;5.13;;
72573;SDS011;60603;52.548;13.420;2022-11-12T08:43:02;11.43;;;6.00;;
72573;SDS011;60603;52.548;13.420;2022-11-12T08:45:33;15.52;;;6.88;;
72573;SDS011;60603;52.548;13.420;2022-11-12T08:48:01;14.07;;;6.20;;
72573;SDS011;60603;52.548;13.420;2022-11-12T08:50:29;14.45;;;6.78;;
72573;SDS011;60603;52.548;13.420;2022-11-12T08:53:05;15.48;;;6.95;;
72573;SDS011;60603;52.548;13.420;2022-11-12T08:55:33;14.18;;;7.00;;
72573;SDS011;60603;52.548;13.420;2022-11-12T08:57:59;15.65;;;7.80;;
72573;SDS011;60603;52.548;13.420;2022-11-12T09:00:28;15.43;;;7.15;;
72573;SDS011;60603;52.548;13.420;2022-11-12T09:05:24;13.90;;;7.00;;
72573;SDS011;60603;52.548;13.420;2022-11-12T09:10:26;19.15;;;8.25;;
72573;SDS011;60603;52.548;13.420;2022-11-12T09:12:53;17.60;;;8.35;;
72573;SDS011;60603;52.548;13.420;2022-11-12T09:15:20;16.30;;;7.80;;
72573;SDS011;60603;52.548;13.420;2022-11-12T09:17:46;14.43;;;7.07;;
72573;SDS011;60603;52.548;13.420;2022-11-12T09:20:12;18.80;;;9.48;;
72573;SDS011;60603;52.548;13.420;2022-11-12T09:22:38;15.45;;;7.25;;
72573;SDS011;60603;52.548;13.420;2022-11-12T09:25:04;17.27;;;8.43;;
72573;SDS011;60603;52.548;13.420;2022-11-12T09:27:31;18.75;;;7.72;;
72573;SDS011;60603;52.548;13.420;2022-11-12T09:29:56;17.35;;;7.85;;
72573;SDS011;60603;52.548;13.420;2022-11-12T09:32:22;18.90;;;8.60;;
72573;SDS011;60603;52.548;13.420;2022-11-12T09:34:48;17.15;;;8.15;;
72573;SDS011;60603;52.548;13.420;2022-11-12T09:37:14;16.15;;;8.27;;
72573;SDS011;60603;52.548;13.420;2022-11-12T09:39:39;15.25;;;7.72;;
72573;SDS011;60603;52.548;13.420;2022-11-12T09:42:06;15.98;;;7.97;;
72573;SDS011;60603;52.548;13.420;2022-11-12T09:44:33;16.23;;;8.07;;
72573;SDS011;60603;52.548;13.420;2022-11-12T09:47:01;15.93;;;6.60;;
72573;SDS011;60603;52.548;13.420;2022-11-12T09:49:36;12.15;;;5.30;;
72573;SDS011;60603;52.548;13.420;2022-11-12T09:52:10;13.07;;;5.80;;
72573;SDS011;60603;52.548;13.420;2022-11-12T09:54:40;20.42;;;8.65;;
72573;SDS011;60603;52.548;13.420;2022-11-12T09:57:13;21.10;;;9.63;;
72573;SDS011;60603;52.548;13.420;2022-11-12T09:59:40;18.05;;;7.65;;
72573;SDS011;60603;52.548;13.420;2022-11-12T10:11:00;19.45;;;8.57;;
72573;SDS011;60603;52.548;13.420;2022-11-12T10:13:56;18.10;;;7.95;;
72573;SDS011;60603;52.548;13.420;2022-11-12T10:19:17;10.27;;;5.07;;
72573;SDS011;60603;52.548;13.420;2022-11-12T10:22:10;13.73;;;5.90;;
72573;SDS011;60603;52.548;13.420;2022-11-12T10:25:36;10.23;;;5.28;;
72573;SDS011;60603;52.548;13.420;2022-11-12T10:27:55;13.23;;;6.40;;
72573;SDS011;60603;52.548;13.420;2022-11-12T10:30:22;15.35;;;6.43;;
72573;SDS011;60603;52.548;13.420;2022-11-12T10:32:49;12.18;;;5.47;;
72573;SDS011;60603;52.548;13.420;2022-11-12T10:35:17;12.68;;;6.70;;
72573;SDS011;60603;52.548;13.420;2022-11-12T10:42:59;14.07;;;5.93;;
72573;SDS011;60603;52.548;13.420;2022-11-12T10:45:27;16.83;;;6.85;;
72573;SDS011;60603;52.548;13.420;2022-11-12T10:47:53;15.10;;;6.80;;
72573;SDS011;60603;52.548;13.420;2022-11-12T10:53:06;14.13;;;7.07;;
72573;SDS011;60603;52.548;13.420;2022-11-12T10:58:21;11.55;;;6.47;;
72573;SDS011;60603;52.548;13.420;2022-11-12T11:03:22;12.90;;;7.32;;
72573;SDS011;60603;52.548;13.420;2022-11-12T11:05:53;15.98;;;7.03;;
72573;SDS011;60603;52.548;13.420;2022-11-12T11:08:32;14.10;;;7.32;;
72573;SDS011;60603;52.548;13.420;2022-11-12T11:13:41;19.13;;;7.18;;
72573;SDS011;60603;52.548;13.420;2022-11-12T11:16:14;11.60;;;6.40;;
72573;SDS011;60603;52.548;13.420;2022-11-12T11:18:50;14.57;;;6.57;;
72573;SDS011;60603;52.548;13.420;2022-11-12T11:23:56;15.10;;;6.78;;
72573;SDS011;60603;52.548;13.420;2022-11-12T11:26:34;13.73;;;5.97;;
72573;SDS011;60603;52.548;13.420;2022-11-12T11:43:09;13.52;;;6.70;;
72573;SDS011;60603;52.548;13.420;2022-11-12T11:46:01;16.20;;;5.78;;
72573;SDS011;60603;52.548;13.420;2022-11-12T11:57:01;12.77;;;5.78;;
72573;SDS011;60603;52.548;13.420;2022-11-12T12:02:25;12.15;;;5.57;;
72573;SDS011;60603;52.548;13.420;2022-11-12T12:18:34;11.20;;;5.35;;
72573;SDS011;60603;52.548;13.420;2022-11-12T12:21:11;13.95;;;6.43;;
72573;SDS011;60603;52.548;13.420;2022-11-12T12:23:40;13.07;;;5.00;;
72573;SDS011;60603;52.548;13.420;2022-11-12T12:26:18;13.45;;;5.72;;
72573;SDS011;60603;52.548;13.420;2022-11-12T12:28:55;11.73;;;5.10;;
72573;SDS011;60603;52.548;13.420;2022-11-12T12:31:26;10.80;;;4.47;;
72573;SDS011;60603;52.548;13.420;2022-11-12T12:34:03;11.85;;;5.38;;
72573;SDS011;60603;52.548;13.420;2022-11-12T12:36:34;14.85;;;6.13;;
72573;SDS011;60603;52.548;13.420;2022-11-12T12:39:10;16.10;;;5.95;;
72573;SDS011;60603;52.548;13.420;2022-11-12T12:44:10;16.35;;;6.68;;
72573;SDS011;60603;52.548;13.420;2022-11-12T12:46:43;10.13;;;5.72;;
72573;SDS011;60603;52.548;13.420;2022-11-12T12:49:18;15.80;;;6.93;;
72573;SDS011;60603;52.548;13.420;2022-11-12T12:51:53;11.88;;;5.80;;
72573;SDS011;60603;52.548;13.420;2022-11-12T12:57:00;12.75;;;5.88;;
72573;SDS011;60603;52.548;13.420;2022-11-12T12:59:27;14.30;;;6.10;;
72573;SDS011;60603;52.548;13.420;2022-11-12T13:01:58;13.57;;;6.18;;
72573;SDS011;60603;52.548;13.420;2022-11-12T13:07:18;13.80;;;5.88;;
72573;SDS011;60603;52.548;13.420;2022-11-12T13:09:46;15.68;;;6.82;;
72573;SDS011;60603;52.548;13.420;2022-11-12T13:12:13;15.23;;;6.55;;
72573;SDS011;60603;52.548;13.420;2022-11-12T13:19:37;13.95;;;6.03;;
72573;SDS011;60603;52.548;13.420;2022-11-12T13:32:52;13.88;;;6.25;;
72573;SDS011;60603;52.548;13.420;2022-11-12T13:48:40;17.30;;;6.65;;
72573;SDS011;60603;52.548;13.420;2022-11-12T13:51:33;12.63;;;5.28;;
72573;SDS011;60603;52.548;13.420;2022-11-12T13:54:00;12.63;;;5.55;;
72573;SDS011;60603;52.548;13.420;2022-11-12T13:56:30;14.43;;;6.10;;
72573;SDS011;60603;52.548;13.420;2022-11-12T13:59:12;13.25;;;5.22;;
72573;SDS011;60603;52.548;13.420;2022-11-12T14:01:39;13.75;;;5.60;;
72573;SDS011;60603;52.548;13.420;2022-11-12T14:04:06;13.15;;;5.32;;
72573;SDS011;60603;52.548;13.420;2022-11-12T14:06:35;10.43;;;5.47;;
72573;SDS011;60603;52.548;13.420;2022-11-12T14:14:45;10.98;;;5.10;;
72573;SDS011;60603;52.548;13.420;2022-11-12T14:22:52;12.68;;;4.85;;
72573;SDS011;60603;52.548;13.420;2022-11-12T14:27:46;14.15;;;6.93;;
72573;SDS011;60603;52.548;13.420;2022-11-12T14:32:46;15.82;;;6.13;;
72573;SDS011;60603;52.548;13.420;2022-11-12T14:37:52;13.00;;;6.18;;
72573;SDS011;60603;52.548;13.420;2022-11-12T14:40:35;16.25;;;6.30;;
72573;SDS011;60603;52.548;13.420;2022-11-12T14:43:02;12.77;;;6.75;;
72573;SDS011;60603;52.548;13.420;2022-11-12T14:45:28;11.38;;;6.15;;
72573;SDS011;60603;52.548;13.420;2022-11-12T14:47:53;13.43;;;6.60;;
72573;SDS011;60603;52.548;13.420;2022-11-12T14:50:27;16.23;;;8.00;;
72573;SDS011;60603;52.548;13.420;2022-11-12T14:52:56;15.52;;;6.85;;
72573;SDS011;60603;52.548;13.420;2022-11-12T14:55:36;17.98;;;6.78;;
72573;SDS011;60603;52.548;13.420;2022-11-12T14:58:03;17.30;;;7.93;;
72573;SDS011;60603;52.548;13.420;2022-11-12T15:02:55;16.35;;;7.20;;
72573;SDS011;60603;52.548;13.420;2022-11-12T15:05:22;18.63;;;6.93;;
72573;SDS011;60603;52.548;13.420;2022-11-12T15:10:37;18.52;;;7.32;;
72573;SDS011;60603;52.548;13.420;2022-11-12T15:13:08;15.18;;;7.00;;
72573;SDS011;60603;52.548;13.420;2022-11-12T15:15:36;18.00;;;7.53;;
72573;SDS011;60603;52.548;13.420;2022-11-12T15:18:05;18.23;;;8.43;;
72573;SDS011;60603;52.548;13.420;2022-11-12T15:20:32;15.82;;;7.88;;
72573;SDS011;60603;52.548;13.420;2022-11-12T15:22:58;19.67;;;8.98;;
72573;SDS011;60603;52.548;13.420;2022-11-12T15:25:28;17.05;;;7.10;;
72573;SDS011;60603;52.548;13.420;2022-11-12T15:27:55;21.02;;;7.43;;
72573;SDS011;60603;52.548;13.420;2022-11-12T15:30:22;19.42;;;7.65;;
72573;SDS011;60603;52.548;13.420;2022-11-12T15:32:49;17.35;;;8.23;;
72573;SDS011;60603;52.548;13.420;2022-11-12T15:35:57;18.95;;;9.13;;
72573;SDS011;60603;52.548;13.420;2022-11-12T15:38:33;17.98;;;8.43;;
72573;SDS011;60603;52.548;13.420;2022-11-12T15:41:00;20.25;;;8.30;;
72573;SDS011;60603;52.548;13.420;2022-11-12T15:43:27;18.10;;;8.88;;
72573;SDS011;60603;52.548;13.420;2022-11-12T15:45:54;18.20;;;9.00;;
72573;SDS011;60603;52.548;13.420;2022-11-12T15:48:20;16.92;;;7.97;;
72573;SDS011;60603;52.548;13.420;2022-11-12T15:50:46;17.67;;;8.38;;
72573;SDS011;60603;52.548;13.420;2022-11-12T15:53:13;16.95;;;8.70;;
72573;SDS011;60603;52.548;13.420;2022-11-12T15:55:39;19.25;;;9.38;;
72573;SDS011;60603;52.548;13.420;2022-11-12T15:58:06;20.55;;;9.63;;
72573;SDS011;60603;52.548;13.420;2022-11-12T16:00:37;17.75;;;9.20;;
72573;SDS011;60603;52.548;13.420;2022-11-12T16:03:16;21.50;;;9.65;;
72573;SDS011;60603;52.548;13.420;2022-11-12T16:05:43;18.60;;;9.60;;
72573;SDS011;60603;52.548;13.420;2022-11-12T16:08:09;24.85;;;10.10;;
72573;SDS011;60603;52.548;13.420;2022-11-12T16:10:35;21.92;;;9.57;;
72573;SDS011;60603;52.548;13.420;2022-11-12T16:13:02;20.90;;;10.73;;
72573;SDS011;60603;52.548;13.420;2022-11-12T16:15:29;20.95;;;11.00;;
72573;SDS011;60603;52.548;13.420;2022-11-12T16:17:55;23.80;;;11.00;;
72573;SDS011;60603;52.548;13.420;2022-11-12T16:22:48;20.73;;;10.45;;
72573;SDS011;60603;52.548;13.420;2022-11-12T16:25:15;23.48;;;11.25;;
72573;SDS011;60603;52.548;13.420;2022-11-12T16:27:41;26.27;;;13.15;;
72573;SDS011;60603;52.548;13.420;2022-11-12T16:30:14;23.38;;;10.80;;
72573;SDS011;60603;52.548;13.420;2022-11-12T16:32:40;28.30;;;11.27;;
72573;SDS011;60603;52.548;13.420;2022-11-12T16:35:06;23.60;;;11.10;;
72573;SDS011;60603;52.548;13.420;2022-11-12T16:37:32;22.65;;;11.73;;
72573;SDS011;60603;52.548;13.420;2022-11-12T16:39:58;26.70;;;12.40;;
72573;SDS011;60603;52.548;13.420;2022-11-12T16:42:23;28.23;;;13.32;;
72573;SDS011;60603;52.548;13.420;2022-11-12T16:44:49;28.75;;;13.05;;
72573;SDS011;60603;52.548;13.420;2022-11-12T16:47:15;25.77;;;13.45;;
72573;SDS011;60603;52.548;13.420;2022-11-12T16:49:41;24.17;;;12.20;;
72573;SDS011;60603;52.548;13.420;2022-11-12T16:52:08;26.02;;;13.20;;
72573;SDS011;60603;52.548;13.420;2022-11-12T16:54:34;29.20;;;13.90;;
72573;SDS011;60603;52.548;13.420;2022-11-12T16:57:00;26.45;;;13.35;;
72573;SDS011;60603;52.548;13.420;2022-11-12T16:59:26;31.20;;;15.57;;
72573;SDS011;60603;52.548;13.420;2022-11-12T17:01:51;27.95;;;13.82;;
72573;SDS011;60603;52.548;13.420;2022-11-12T17:04:18;27.25;;;14.05;;